Weather at Carlstrom Field [CLOSED]

Public forecast

Using degrees Fahrenheit for public forecast. Weather courtesy of forecast.io.

Closest aviation weather report (METAR) to Carlstrom Field

Closest report is Charlotte County Airport, 14.2 nm (26.3 km) SSW. Retrieved 2021/01/22 02:53 UTC (16 minutes ago):

KPGD 220253Z AUTO 00000KT 10SM CLR 14/12 A3009 RMK AO2 SLP188 T01390117 58002

Closest aviation forecast (TAF) to Carlstrom Field

Closest forecast is Charlotte County Airport, 14.2 nm (26.3 km) SSW. Retrieved 2021-01-22 00:39 UTC (2 hours ago):

TAF KPGD 212336Z 2200/2224 VRB04KT P6SM SCT250 FM220900 VRB03KT 5SM BR FEW007 SCT250 FM221500 24010KT P6SM SCT250